createdAt,value
2017-05-01T00:00:52.764Z,0
2017-05-01T00:02:14.721Z,0
2017-05-01T00:03:37.538Z,0
2017-05-01T00:04:59.346Z,0
2017-05-01T00:06:30.933Z,0
2017-05-01T00:07:52.677Z,0
2017-05-01T00:09:14.578Z,0
2017-05-01T00:10:36.410Z,0
2017-05-01T00:12:15.863Z,0
2017-05-01T00:13:43.258Z,0
2017-05-01T00:15:08.469Z,0
2017-05-01T00:16:30.376Z,0
2017-05-01T00:17:52.151Z,0
2017-05-01T00:19:13.912Z,0
2017-05-01T00:20:35.754Z,0
2017-05-01T00:22:00.234Z,0
2017-05-01T00:23:22.393Z,0
2017-05-01T00:24:45.294Z,0
2017-05-01T00:26:07.697Z,0
2017-05-01T00:27:30.454Z,0
2017-05-01T00:28:52.743Z,0
2017-05-01T00:30:14.544Z,0
2017-05-01T00:31:37.040Z,0
2017-05-01T00:32:58.860Z,0
2017-05-01T00:34:20.918Z,0
2017-05-01T00:35:43.122Z,0
2017-05-01T00:37:05.162Z,0
2017-05-01T00:38:27.926Z,0
2017-05-01T00:39:49.675Z,0
2017-05-01T00:41:11.427Z,0
2017-05-01T00:42:33.360Z,0
2017-05-01T00:44:04.935Z,0
2017-05-01T00:45:26.676Z,0
2017-05-01T00:46:49.616Z,0
2017-05-01T00:48:11.536Z,0
2017-05-01T00:49:33.351Z,0
2017-05-01T00:50:55.174Z,0
2017-05-01T00:52:17.078Z,0
2017-05-01T00:53:39.934Z,0
2017-05-01T00:55:02.699Z,0
2017-05-01T00:56:24.442Z,0
2017-05-01T00:57:46.183Z,0
2017-05-01T00:59:07.999Z,0
2017-05-01T01:00:30.817Z,0
2017-05-01T01:01:52.638Z,0
2017-05-01T01:03:14.486Z,0
2017-05-01T01:04:36.274Z,0
2017-05-01T01:05:58.080Z,0
2017-05-01T01:07:20.020Z,0
2017-05-01T01:08:42.219Z,0
2017-05-01T01:10:05.373Z,0
2017-05-01T01:11:27.273Z,0
2017-05-01T01:12:49.030Z,0
2017-05-01T01:14:10.877Z,0
2017-05-01T01:15:32.753Z,0
2017-05-01T01:16:55.535Z,0
2017-05-01T01:18:18.319Z,0
2017-05-01T01:19:40.198Z,0
2017-05-01T01:21:02.084Z,0
2017-05-01T01:22:23.942Z,0
2017-05-01T01:23:45.742Z,0
2017-05-01T01:25:07.538Z,0
2017-05-01T01:26:29.330Z,0
2017-05-01T01:27:51.064Z,0
2017-05-01T01:29:12.849Z,0
2017-05-01T01:30:34.605Z,0
2017-05-01T01:31:56.572Z,0
2017-05-01T01:33:18.323Z,0
2017-05-01T01:34:41.170Z,0
2017-05-01T01:36:02.904Z,0
2017-05-01T01:37:24.776Z,0
2017-05-01T01:38:46.507Z,0
2017-05-01T01:40:08.282Z,0
2017-05-01T01:41:30.070Z,0
2017-05-01T01:42:52.383Z,0
2017-05-01T01:44:14.625Z,0
2017-05-01T01:45:36.600Z,0
2017-05-01T01:46:58.427Z,0
2017-05-01T01:48:20.332Z,0
2017-05-01T01:49:42.192Z,0
2017-05-01T01:51:04.053Z,0
2017-05-01T01:52:26.826Z,0
2017-05-01T01:53:48.688Z,0
2017-05-01T01:55:10.549Z,0
2017-05-01T01:56:32.528Z,0
2017-05-01T01:57:54.361Z,0
2017-05-01T01:59:16.185Z,0
2017-05-01T02:00:38.048Z,0
2017-05-01T02:01:59.968Z,0
2017-05-01T02:03:21.790Z,0
2017-05-01T02:04:43.641Z,0
2017-05-01T02:06:05.480Z,0
2017-05-01T02:07:27.214Z,0
2017-05-01T02:08:48.918Z,0
2017-05-01T02:10:11.716Z,0
2017-05-01T02:11:33.458Z,0
2017-05-01T02:12:55.266Z,0
2017-05-01T02:14:18.013Z,0
2017-05-01T02:15:39.789Z,0
2017-05-01T02:17:02.093Z,0
2017-05-01T02:18:24.417Z,0
2017-05-01T02:19:46.935Z,0
2017-05-01T02:21:08.752Z,0
2017-05-01T02:22:30.538Z,0
2017-05-01T02:23:52.291Z,0
2017-05-01T02:25:14.125Z,0
2017-05-01T02:26:35.896Z,0
2017-05-01T02:27:57.734Z,0
2017-05-01T02:29:19.534Z,0
2017-05-01T02:30:42.425Z,0
2017-05-01T02:32:04.228Z,0
2017-05-01T02:33:26.106Z,0
2017-05-01T02:34:47.888Z,0
2017-05-01T02:36:09.619Z,0
2017-05-01T02:37:31.504Z,0
2017-05-01T02:38:54.314Z,0
2017-05-01T02:40:16.138Z,0
2017-05-01T02:41:38.057Z,0
2017-05-01T02:42:59.787Z,0
2017-05-01T02:44:21.562Z,0
2017-05-01T02:45:43.311Z,0
2017-05-01T02:47:05.026Z,0
2017-05-01T02:48:26.937Z,0
2017-05-01T02:49:48.700Z,0
2017-05-01T02:51:10.847Z,0
2017-05-01T02:52:32.998Z,0
2017-05-01T02:53:55.201Z,0
2017-05-01T02:55:17.035Z,0
2017-05-01T02:56:38.939Z,0
2017-05-01T02:58:00.695Z,0
2017-05-01T02:59:22.555Z,0
2017-05-01T03:00:44.323Z,0
2017-05-01T03:02:06.119Z,0
2017-05-01T03:03:27.896Z,0
2017-05-01T03:04:49.883Z,0
2017-05-01T03:06:12.714Z,0
2017-05-01T03:07:34.505Z,0
2017-05-01T03:08:57.370Z,0
2017-05-01T03:10:19.315Z,0
2017-05-01T03:11:41.135Z,0
2017-05-01T03:13:02.887Z,0
2017-05-01T03:14:24.721Z,0
2017-05-01T03:15:46.497Z,0
2017-05-01T03:17:08.302Z,0
2017-05-01T03:18:30.096Z,0
2017-05-01T03:19:51.954Z,0
2017-05-01T03:21:13.790Z,0
2017-05-01T03:22:35.542Z,0
2017-05-01T03:23:57.328Z,4
2017-05-01T03:25:19.260Z,0
2017-05-01T03:26:41.533Z,4
2017-05-01T03:28:03.519Z,0
2017-05-01T03:29:25.386Z,4
2017-05-01T03:30:47.211Z,8
2017-05-01T03:32:09.037Z,8
2017-05-01T03:33:31.837Z,8
2017-05-01T03:34:53.625Z,12
2017-05-01T03:36:15.482Z,12
2017-05-01T03:37:37.330Z,16
2017-05-01T03:38:59.189Z,20
2017-05-01T03:40:20.953Z,24
2017-05-01T03:41:42.713Z,32
2017-05-01T03:43:04.622Z,40
2017-05-01T03:44:26.408Z,48
2017-05-01T03:45:49.236Z,56
2017-05-01T03:47:11.064Z,72
2017-05-01T03:48:32.962Z,84
2017-05-01T03:49:54.720Z,100
2017-05-01T03:51:16.625Z,116
2017-05-01T03:52:38.391Z,136
2017-05-01T03:54:00.255Z,156
2017-05-01T03:55:21.998Z,176
2017-05-01T03:56:43.800Z,200
2017-05-01T03:58:05.552Z,224
2017-05-01T03:59:27.468Z,244
2017-05-01T04:00:51.439Z,268
2017-05-01T04:02:13.649Z,292
2017-05-01T04:03:36.533Z,316
2017-05-01T04:04:58.322Z,340
2017-05-01T04:06:20.148Z,364
2017-05-01T04:07:41.971Z,388
2017-05-01T04:09:03.700Z,412
2017-05-01T04:10:25.618Z,440
2017-05-01T04:11:47.428Z,472
2017-05-01T04:13:09.243Z,508
2017-05-01T04:14:41.749Z,548
2017-05-01T04:16:03.590Z,592
2017-05-01T04:17:25.313Z,620
2017-05-01T04:18:47.170Z,660
2017-05-01T04:20:08.911Z,696
2017-05-01T04:21:30.743Z,736
2017-05-01T04:22:52.659Z,776
2017-05-01T04:24:14.534Z,812
2017-05-01T04:25:36.308Z,856
2017-05-01T04:26:58.135Z,908
2017-05-01T04:28:20.005Z,956
2017-05-01T04:29:41.790Z,1012
2017-05-01T04:31:03.686Z,1072
2017-05-01T04:32:25.497Z,1132
2017-05-01T04:33:47.350Z,1196
2017-05-01T04:35:09.276Z,1264
2017-05-01T04:36:31.316Z,1336
2017-05-01T04:37:53.500Z,1412
2017-05-01T04:39:15.434Z,1496
2017-05-01T04:40:37.220Z,1584
2017-05-01T04:41:59.008Z,1680
2017-05-01T04:43:20.918Z,1788
2017-05-01T04:44:42.709Z,1884
2017-05-01T04:46:04.457Z,1972
2017-05-01T04:47:26.212Z,2064
2017-05-01T04:48:48.723Z,2092
2017-05-01T04:50:10.501Z,2156
2017-05-01T04:51:32.408Z,2240
2017-05-01T04:52:54.196Z,2356
2017-05-01T04:54:16.094Z,2472
2017-05-01T04:55:37.910Z,2640
2017-05-01T04:57:00.717Z,2776
2017-05-01T04:58:22.605Z,2916
2017-05-01T04:59:44.381Z,3140
2017-05-01T05:01:06.182Z,3464
2017-05-01T05:02:27.971Z,3776
2017-05-01T05:03:49.846Z,3968
2017-05-01T05:05:11.656Z,4192
2017-05-01T05:06:33.517Z,4444
2017-05-01T05:07:57.353Z,4732
2017-05-01T05:09:19.241Z,5016
2017-05-01T05:10:41.323Z,5300
2017-05-01T05:12:03.396Z,5648
2017-05-01T05:13:25.493Z,6000
2017-05-01T05:14:47.459Z,6316
2017-05-01T05:16:09.235Z,6620
2017-05-01T05:17:30.990Z,6920
2017-05-01T05:19:02.624Z,7152
2017-05-01T05:20:24.456Z,7312
2017-05-01T05:21:46.308Z,7304
2017-05-01T05:23:08.094Z,7288
2017-05-01T05:24:29.886Z,7344
2017-05-01T05:25:51.710Z,7372
2017-05-01T05:27:13.622Z,7452
2017-05-01T05:28:35.550Z,7484
2017-05-01T05:29:57.378Z,7372
2017-05-01T05:31:19.146Z,7232
2017-05-01T05:32:41.005Z,7096
2017-05-01T05:34:02.868Z,6784
2017-05-01T05:35:24.648Z,6420
2017-05-01T05:36:47.975Z,6148
2017-05-01T05:38:11.039Z,6152
2017-05-01T05:39:33.616Z,6384
2017-05-01T05:40:55.540Z,6524
2017-05-01T05:42:17.646Z,6752
2017-05-01T05:43:39.429Z,7092
2017-05-01T05:45:12.784Z,7240
2017-05-01T05:46:34.743Z,7148
2017-05-01T05:47:57.065Z,7088
2017-05-01T05:49:19.074Z,7012
2017-05-01T05:50:41.152Z,6916
2017-05-01T05:52:03.119Z,6708
2017-05-01T05:53:24.884Z,6604
2017-05-01T05:54:46.727Z,6932
2017-05-01T05:56:08.643Z,7376
2017-05-01T05:57:30.518Z,7872
2017-05-01T05:58:52.298Z,8208
2017-05-01T06:00:15.180Z,8956
2017-05-01T06:01:36.947Z,9048
2017-05-01T06:02:58.861Z,9508
2017-05-01T06:04:20.618Z,9216
2017-05-01T06:05:42.443Z,8868
2017-05-01T06:07:04.204Z,8756
2017-05-01T06:08:25.998Z,8436
2017-05-01T06:09:47.832Z,8316
2017-05-01T06:11:09.693Z,8212
2017-05-01T06:12:31.824Z,8092
2017-05-01T06:13:53.857Z,8312
2017-05-01T06:15:15.665Z,8288
2017-05-01T06:16:38.580Z,8232
2017-05-01T06:18:00.452Z,8200
2017-05-01T06:19:22.321Z,8420
2017-05-01T06:20:44.171Z,8700
2017-05-01T06:22:06.753Z,9084
2017-05-01T06:23:28.911Z,9524
2017-05-01T06:25:01.238Z,9984
2017-05-01T06:26:23.661Z,10828
2017-05-01T06:27:48.423Z,11436
2017-05-01T06:29:15.099Z,12012
2017-05-01T06:30:36.868Z,12568
2017-05-01T06:31:59.589Z,12920
2017-05-01T06:33:24.825Z,13044
2017-05-01T06:34:46.563Z,13020
2017-05-01T06:36:20.080Z,12976
2017-05-01T06:38:00.577Z,12872
2017-05-01T06:39:22.498Z,12852
2017-05-01T06:40:44.372Z,12816
2017-05-01T06:42:06.234Z,12904
2017-05-01T06:43:33.850Z,12924
2017-05-01T06:44:57.479Z,13128
2017-05-01T06:46:21.288Z,13132
2017-05-01T06:47:53.170Z,12952
2017-05-01T06:49:15.050Z,13164
2017-05-01T06:50:36.947Z,13216
2017-05-01T06:51:58.736Z,13488
2017-05-01T06:53:20.666Z,13608
2017-05-01T06:54:43.248Z,13628
2017-05-01T06:56:05.253Z,13564
2017-05-01T06:57:27.132Z,13588
2017-05-01T06:58:49.242Z,13796
2017-05-01T07:00:11.575Z,13800
2017-05-01T07:01:37.641Z,13956
2017-05-01T07:02:59.482Z,14128
2017-05-01T07:04:21.394Z,14624
2017-05-01T07:05:43.323Z,14688
2017-05-01T07:07:05.312Z,14816
2017-05-01T07:08:27.437Z,15136
2017-05-01T07:09:49.252Z,15264
2017-05-01T07:11:11.012Z,15520
2017-05-01T07:12:32.893Z,15552
2017-05-01T07:13:54.770Z,15744
2017-05-01T07:15:16.630Z,15776
2017-05-01T07:16:38.561Z,16064
2017-05-01T07:18:00.353Z,15872
2017-05-01T07:19:22.278Z,16000
2017-05-01T07:20:44.039Z,16000
2017-05-01T07:22:05.908Z,16224
2017-05-01T07:23:27.971Z,16256
2017-05-01T07:24:50.093Z,16224
2017-05-01T07:26:12.325Z,16192
2017-05-01T07:27:34.266Z,16192
2017-05-01T07:28:57.426Z,16512
2017-05-01T07:30:19.242Z,16768
2017-05-01T07:31:41.215Z,16864
2017-05-01T07:33:03.465Z,16960
2017-05-01T07:34:26.672Z,16800
2017-05-01T07:35:48.683Z,16672
2017-05-01T07:37:10.907Z,16672
2017-05-01T07:38:33.002Z,16576
2017-05-01T07:39:54.999Z,16544
2017-05-01T07:41:19.492Z,16704
2017-05-01T07:42:41.682Z,16928
2017-05-01T07:44:03.574Z,17056
2017-05-01T07:45:26.054Z,17120
2017-05-01T07:46:47.907Z,17312
2017-05-01T07:48:09.812Z,17504
2017-05-01T07:49:31.883Z,17600
2017-05-01T07:50:53.877Z,17632
2017-05-01T07:52:15.709Z,17568
2017-05-01T07:53:37.541Z,17600
2017-05-01T07:54:59.349Z,17696
2017-05-01T07:56:21.266Z,18016
2017-05-01T07:57:43.197Z,18240
2017-05-01T07:59:06.105Z,18240
2017-05-01T08:00:27.946Z,18144
2017-05-01T08:01:49.760Z,17920
2017-05-01T08:03:11.558Z,17952
2017-05-01T08:04:33.447Z,17728
2017-05-01T08:05:55.351Z,17504
2017-05-01T08:07:17.155Z,17248
2017-05-01T08:08:39.077Z,17248
2017-05-01T08:10:01.329Z,16576
2017-05-01T08:11:23.472Z,15808
2017-05-01T08:12:45.403Z,16096
2017-05-01T08:14:07.321Z,16160
2017-05-01T08:15:29.212Z,16480
2017-05-01T08:16:51.059Z,17280
2017-05-01T08:18:12.991Z,18016
2017-05-01T08:19:34.876Z,17824
2017-05-01T08:20:56.835Z,17184
2017-05-01T08:22:18.648Z,16992
2017-05-01T08:35:05.304Z,16096
2017-05-01T08:36:27.230Z,15416
2017-05-01T08:37:48.997Z,15436
2017-05-01T08:39:10.862Z,15452
2017-05-01T08:40:32.713Z,15400
2017-05-01T08:41:54.621Z,15268
2017-05-01T08:43:22.024Z,15600
2017-05-01T08:49:46.878Z,16832
2017-05-01T08:51:08.745Z,17024
2017-05-01T08:52:30.593Z,16672
2017-05-01T08:54:00.234Z,16960
2017-05-01T08:55:24.123Z,17472
2017-05-01T08:56:47.694Z,16896
2017-05-01T08:58:13.322Z,16896
2017-05-01T08:59:35.102Z,17376
2017-05-01T09:00:56.946Z,17280
2017-05-01T09:02:18.786Z,16864
2017-05-01T09:03:40.582Z,16544
2017-05-01T09:05:02.478Z,16928
2017-05-01T09:06:24.268Z,16292
2017-05-01T09:07:46.084Z,16960
2017-05-01T09:09:07.869Z,18880
2017-05-01T09:33:35.643Z,30944
2017-05-01T09:34:57.531Z,28256
2017-05-01T09:36:52.147Z,22592
2017-05-01T09:38:45.140Z,21248
2017-05-01T09:40:16.737Z,17984
2017-05-01T09:41:49.427Z,17696
2017-05-01T09:43:39.769Z,17152
2017-05-01T09:45:28.455Z,18240
2017-05-01T09:46:55.897Z,19104
2017-05-01T09:48:17.758Z,17472
2017-05-01T09:49:39.589Z,16256
2017-05-01T09:51:01.357Z,15744
2017-05-01T09:52:23.165Z,17760
2017-05-01T09:53:44.999Z,22048
2017-05-01T09:55:06.916Z,21408
2017-05-01T09:56:28.800Z,22880
2017-05-01T09:57:50.585Z,25920
2017-05-01T09:59:12.330Z,31136
2017-05-01T10:12:15.142Z,20352
2017-05-01T10:13:38.899Z,19872
2017-05-01T10:15:00.658Z,18080
2017-05-01T10:16:22.591Z,16544
2017-05-01T10:18:06.269Z,20864
2017-05-01T10:19:34.944Z,29216
2017-05-01T10:20:56.719Z,34592
2017-05-01T10:22:18.602Z,32448
2017-05-01T10:23:40.480Z,26656
2017-05-01T10:25:02.297Z,33472
2017-05-01T10:26:24.083Z,25888
2017-05-01T10:27:45.902Z,26496
2017-05-01T10:29:07.696Z,29952
2017-05-01T10:30:29.445Z,40160
2017-05-01T10:31:51.201Z,41536
2017-05-01T10:33:13.010Z,35104
2017-05-01T10:34:44.665Z,27264
2017-05-01T10:36:06.460Z,25856
2017-05-01T10:37:28.332Z,29568
2017-05-01T10:38:50.178Z,44800
2017-05-01T10:40:12.322Z,38048
2017-05-01T10:41:34.182Z,40384
2017-05-01T10:42:55.977Z,68160
2017-05-01T10:44:17.777Z,37760
2017-05-01T10:45:39.668Z,43040
2017-05-01T10:47:01.519Z,37344
2017-05-01T10:48:23.354Z,46752
2017-05-01T10:49:45.151Z,38432
2017-05-01T10:51:06.996Z,29248
2017-05-01T10:52:28.773Z,29856
2017-05-01T10:53:50.618Z,31264
2017-05-01T10:55:12.493Z,30304
2017-05-01T10:56:34.378Z,32992
2017-05-01T10:57:56.306Z,35936
2017-05-01T10:59:18.219Z,37408
2017-05-01T11:00:40.063Z,36416
2017-05-01T11:02:02.059Z,35104
2017-05-01T11:03:23.931Z,33792
2017-05-01T11:04:45.764Z,19808
2017-05-01T11:06:07.741Z,17984
2017-05-01T11:07:29.719Z,19648
2017-05-01T11:08:51.659Z,19104
2017-05-01T11:10:14.400Z,15712
2017-05-01T11:11:36.444Z,12216
2017-05-01T11:12:58.433Z,9544
2017-05-01T11:14:20.245Z,9560
2017-05-01T11:15:42.111Z,10904
2017-05-01T11:17:03.895Z,12580
2017-05-01T11:18:25.771Z,12228
2017-05-01T11:19:47.777Z,10764
2017-05-01T11:21:09.631Z,9420
2017-05-01T11:22:31.434Z,8136
2017-05-01T11:23:54.393Z,6992
2017-05-01T11:25:16.333Z,5876
2017-05-01T11:26:38.160Z,5260
2017-05-01T11:28:00.028Z,4656
2017-05-01T11:29:21.830Z,4368
2017-05-01T11:30:43.601Z,4124
2017-05-01T11:32:05.449Z,3832
2017-05-01T11:33:27.227Z,3900
2017-05-01T11:34:49.066Z,4164
2017-05-01T11:36:10.829Z,4352
2017-05-01T11:37:32.604Z,4428
2017-05-01T11:39:04.189Z,4748
2017-05-01T11:40:26.018Z,5176
2017-05-01T11:41:47.755Z,5616
2017-05-01T11:43:09.636Z,5740
2017-05-01T11:44:31.440Z,5880
2017-05-01T11:45:53.323Z,6144
2017-05-01T11:47:15.217Z,6668
2017-05-01T11:48:37.267Z,7756
2017-05-01T11:49:59.097Z,8740
2017-05-01T11:51:20.959Z,9036
2017-05-01T11:52:42.767Z,8820
2017-05-01T11:54:04.733Z,8612
2017-05-01T11:55:26.645Z,8416
2017-05-01T11:56:48.465Z,8044
2017-05-01T11:58:10.342Z,7928
2017-05-01T11:59:32.235Z,8100
2017-05-01T12:00:54.068Z,8204
2017-05-01T12:02:16.058Z,8276
2017-05-01T12:03:38.033Z,8920
2017-05-01T12:04:59.845Z,9144
2017-05-01T12:06:21.625Z,9116
2017-05-01T12:07:43.647Z,9008
2017-05-01T12:09:15.281Z,9292
2017-05-01T12:10:37.069Z,8832
2017-05-01T12:11:58.932Z,7884
2017-05-01T12:13:21.238Z,7588
2017-05-01T12:14:43.118Z,7732
2017-05-01T12:16:05.989Z,7292
2017-05-01T12:17:27.895Z,6540
2017-05-01T12:18:49.668Z,6280
2017-05-01T12:20:11.485Z,5864
2017-05-01T12:21:33.319Z,5624
2017-05-01T12:22:55.197Z,5632
2017-05-01T12:24:17.064Z,5616
2017-05-01T12:25:38.892Z,5912
2017-05-01T12:27:00.710Z,6144
2017-05-01T12:28:22.543Z,6048
2017-05-01T12:29:44.448Z,6112
2017-05-01T12:31:06.433Z,6700
2017-05-01T12:32:28.277Z,6808
2017-05-01T12:33:50.149Z,7084
2017-05-01T12:35:12.097Z,7232
2017-05-01T12:36:33.981Z,7232
2017-05-01T12:37:55.806Z,7388
2017-05-01T12:39:17.610Z,7628
2017-05-01T12:40:39.446Z,7232
2017-05-01T12:42:01.267Z,6824
2017-05-01T12:43:23.082Z,6472
2017-05-01T12:44:44.938Z,5280
2017-05-01T12:46:06.838Z,5788
2017-05-01T12:47:28.556Z,5444
2017-05-01T12:48:50.373Z,5924
2017-05-01T12:50:12.147Z,5624
2017-05-01T12:51:34.086Z,5788
2017-05-01T12:52:56.050Z,5424
2017-05-01T12:54:17.955Z,5176
2017-05-01T12:55:39.817Z,4696
2017-05-01T12:57:01.729Z,4320
2017-05-01T12:58:23.628Z,4056
2017-05-01T12:59:45.521Z,3972
2017-05-01T13:01:07.398Z,4040
2017-05-01T13:02:29.536Z,3744
2017-05-01T13:03:51.423Z,3856
2017-05-01T13:05:13.200Z,3476
2017-05-01T13:06:35.015Z,3748
2017-05-01T13:07:57.035Z,3632
2017-05-01T13:09:18.975Z,3536
2017-05-01T13:10:40.828Z,3968
2017-05-01T13:12:02.689Z,3988
2017-05-01T13:13:24.615Z,3684
2017-05-01T13:14:46.451Z,4152
2017-05-01T13:16:08.325Z,4248
2017-05-01T13:17:31.198Z,3880
2017-05-01T13:18:53.132Z,4236
2017-05-01T13:20:14.918Z,3876
2017-05-01T13:21:36.771Z,3500
2017-05-01T13:22:58.645Z,3544
2017-05-01T13:24:20.553Z,3028
2017-05-01T13:25:42.363Z,2732
2017-05-01T13:27:04.199Z,2296
2017-05-01T13:28:26.031Z,1908
2017-05-01T13:29:47.877Z,1764
2017-05-01T13:31:09.696Z,1708
2017-05-01T13:32:31.510Z,1692
2017-05-01T13:33:53.390Z,1760
2017-05-01T13:35:15.283Z,1804
2017-05-01T13:36:37.193Z,1776
2017-05-01T13:37:59.074Z,2028
2017-05-01T13:39:20.858Z,2092
2017-05-01T13:40:42.846Z,2416
2017-05-01T13:42:04.602Z,2444
2017-05-01T13:43:26.472Z,2392
2017-05-01T13:44:48.300Z,2616
2017-05-01T13:46:10.091Z,2960
2017-05-01T13:47:32.026Z,2728
2017-05-01T13:48:53.827Z,3404
2017-05-01T13:50:15.729Z,2988
2017-05-01T13:51:37.574Z,3044
2017-05-01T13:52:59.450Z,3020
2017-05-01T13:54:25.689Z,2688
2017-05-01T13:55:47.553Z,2980
2017-05-01T13:57:09.526Z,2708
2017-05-01T13:58:31.359Z,2920
2017-05-01T13:59:53.200Z,2888
2017-05-01T14:01:15.033Z,2840
2017-05-01T14:02:37.104Z,2752
2017-05-01T14:03:58.988Z,2476
2017-05-01T14:05:20.843Z,2156
2017-05-01T14:06:42.725Z,1928
2017-05-01T14:08:04.698Z,2328
2017-05-01T14:09:26.540Z,2100
2017-05-01T14:10:48.407Z,2004
2017-05-01T14:12:10.294Z,2300
2017-05-01T14:13:32.163Z,2600
2017-05-01T14:14:55.059Z,2884
2017-05-01T14:16:16.928Z,2840
2017-05-01T14:17:38.722Z,2856
2017-05-01T14:19:00.662Z,2800
2017-05-01T14:20:22.480Z,2580
2017-05-01T14:21:44.316Z,2668
2017-05-01T14:23:06.223Z,3164
2017-05-01T14:24:28.100Z,3216
2017-05-01T14:25:50.905Z,3532
2017-05-01T14:27:12.761Z,3652
2017-05-01T14:28:34.609Z,3584
2017-05-01T14:29:56.406Z,3580
2017-05-01T14:31:18.282Z,3496
2017-05-01T14:32:40.116Z,3508
2017-05-01T14:34:01.977Z,3612
2017-05-01T14:35:23.930Z,4228
2017-05-01T14:36:45.707Z,4520
2017-05-01T14:38:07.601Z,3992
2017-05-01T14:39:31.561Z,4044
2017-05-01T14:40:53.670Z,4080
2017-05-01T14:42:15.592Z,3868
2017-05-01T14:43:37.364Z,4468
2017-05-01T14:45:01.216Z,4624
2017-05-01T14:46:26.526Z,3808
2017-05-01T14:47:49.383Z,4404
2017-05-01T14:49:11.268Z,4492
2017-05-01T14:50:33.213Z,3716
2017-05-01T14:51:55.047Z,4044
2017-05-01T14:53:16.924Z,4004
2017-05-01T14:54:38.846Z,4332
2017-05-01T14:56:00.780Z,4836
2017-05-01T14:57:22.725Z,5288
2017-05-01T14:58:44.710Z,4840
2017-05-01T15:00:06.531Z,4692
2017-05-01T15:01:28.353Z,4872
2017-05-01T15:02:50.250Z,5008
2017-05-01T15:04:12.088Z,4816
2017-05-01T15:05:33.923Z,4860
2017-05-01T15:06:55.783Z,4968
2017-05-01T15:08:17.850Z,4776
2017-05-01T15:09:39.864Z,4664
2017-05-01T15:11:01.681Z,4176
2017-05-01T15:12:23.503Z,3884
2017-05-01T15:13:46.710Z,3764
2017-05-01T15:15:08.656Z,3520
2017-05-01T15:16:30.478Z,3440
2017-05-01T15:17:52.419Z,3460
2017-05-01T15:19:14.531Z,3304
2017-05-01T15:20:36.497Z,3396
2017-05-01T15:21:58.432Z,3560
2017-05-01T15:23:20.972Z,3788
2017-05-01T15:24:43.665Z,3728
2017-05-01T15:27:14.931Z,3260
2017-05-01T15:28:37.832Z,3120
2017-05-01T15:29:59.671Z,3656
2017-05-01T15:31:21.551Z,3712
2017-05-01T15:32:43.409Z,3880
2017-05-01T15:34:05.321Z,3952
2017-05-01T15:35:27.201Z,3876
2017-05-01T15:36:49.005Z,4120
2017-05-01T15:38:10.791Z,3936
2017-05-01T15:39:32.681Z,3572
2017-05-01T15:40:55.562Z,4052
2017-05-01T15:42:17.493Z,3952
2017-05-01T15:43:39.372Z,3408
2017-05-01T15:45:01.172Z,3556
2017-05-01T15:46:24.033Z,3440
2017-05-01T15:47:45.858Z,3400
2017-05-01T15:49:07.749Z,3680
2017-05-01T15:50:30.646Z,3232
2017-05-01T15:51:52.481Z,3236
2017-05-01T15:53:14.553Z,2944
2017-05-01T15:54:37.564Z,2688
2017-05-01T15:55:59.558Z,3020
2017-05-01T15:57:22.436Z,3360
2017-05-01T15:58:44.456Z,3608
2017-05-01T16:00:06.475Z,3716
2017-05-01T16:01:29.915Z,3824
2017-05-01T16:02:51.992Z,4212
2017-05-01T16:04:14.927Z,4016
2017-05-01T16:05:36.837Z,3568
2017-05-01T16:06:58.755Z,2876
2017-05-01T16:08:20.683Z,2548
2017-05-01T16:09:42.604Z,2584
2017-05-01T16:11:04.475Z,2544
2017-05-01T16:12:26.334Z,2400
2017-05-01T16:13:48.249Z,2472
2017-05-01T16:15:10.230Z,2348
2017-05-01T16:16:33.097Z,2180
2017-05-01T16:17:54.897Z,2084
2017-05-01T16:19:16.744Z,2032
2017-05-01T16:20:38.550Z,1984
2017-05-01T16:22:00.395Z,1960
2017-05-01T16:23:22.174Z,2048
2017-05-01T16:24:46.114Z,1916
2017-05-01T16:26:07.948Z,2024
2017-05-01T16:27:33.115Z,2052
2017-05-01T16:28:54.949Z,2032
2017-05-01T16:30:16.875Z,2132
2017-05-01T16:31:38.822Z,2096
2017-05-01T16:33:00.805Z,2104
2017-05-01T16:34:22.652Z,1996
2017-05-01T16:35:44.446Z,2072
2017-05-01T16:37:06.201Z,2064
2017-05-01T16:38:27.997Z,2148
2017-05-01T16:39:49.970Z,2172
2017-05-01T16:41:12.921Z,1768
2017-05-01T16:42:34.754Z,1864
2017-05-01T16:43:58.570Z,1652
2017-05-01T16:45:20.499Z,1820
2017-05-01T16:46:42.463Z,1416
2017-05-01T16:48:05.363Z,1552
2017-05-01T16:49:27.314Z,1624
2017-05-01T16:50:49.350Z,1452
2017-05-01T16:52:11.344Z,1672
2017-05-01T16:53:33.216Z,1348
2017-05-01T16:54:55.066Z,1364
2017-05-01T16:56:16.840Z,1404
2017-05-01T16:57:38.696Z,1412
2017-05-01T16:59:00.462Z,1412
2017-05-01T17:00:22.286Z,1296
2017-05-01T17:01:44.142Z,1336
2017-05-01T17:03:06.052Z,1416
2017-05-01T17:04:28.975Z,1300
2017-05-01T17:05:51.805Z,1380
2017-05-01T17:07:13.717Z,1500
2017-05-01T17:08:35.738Z,1592
2017-05-01T17:09:57.488Z,1456
2017-05-01T17:11:19.395Z,1460
2017-05-01T17:12:41.388Z,1472
2017-05-01T17:14:07.365Z,1216
2017-05-01T17:18:10.499Z,1136
2017-05-01T17:19:35.984Z,1032
2017-05-01T17:20:58.935Z,1052
2017-05-01T17:22:20.914Z,1104
2017-05-01T17:23:42.711Z,1048
2017-05-01T17:25:06.447Z,1028
2017-05-01T17:26:32.757Z,988
2017-05-01T17:27:54.867Z,900
2017-05-01T17:29:21.386Z,848
2017-05-01T17:30:43.457Z,720
2017-05-01T17:32:06.222Z,732
2017-05-01T17:33:28.206Z,704
2017-05-01T17:34:51.180Z,720
2017-05-01T17:36:15.167Z,664
2017-05-01T17:37:37.986Z,680
2017-05-01T17:38:59.720Z,588
2017-05-01T17:40:21.668Z,532
2017-05-01T17:41:43.572Z,568
2017-05-01T17:43:05.405Z,596
2017-05-01T17:44:27.223Z,572
2017-05-01T17:45:49.170Z,528
2017-05-01T17:47:12.269Z,492
2017-05-01T17:48:34.238Z,444
2017-05-01T17:49:57.094Z,404
2017-05-01T17:51:19.073Z,340
2017-05-01T17:52:41.032Z,324
2017-05-01T17:54:02.988Z,304
2017-05-01T17:55:24.901Z,296
2017-05-01T17:56:46.805Z,260
2017-05-01T17:58:08.775Z,216
2017-05-01T17:59:30.748Z,196
2017-05-01T18:00:52.569Z,168
2017-05-01T18:02:18.510Z,192
2017-05-01T18:03:40.498Z,192
2017-05-01T18:05:02.913Z,184
2017-05-01T18:06:25.876Z,180
2017-05-01T18:07:47.852Z,172
2017-05-01T18:09:11.834Z,156
2017-05-01T18:10:35.797Z,156
2017-05-01T18:11:58.763Z,148
2017-05-01T18:13:21.812Z,148
2017-05-01T18:14:44.031Z,124
2017-05-01T18:16:08.026Z,116
2017-05-01T18:17:29.808Z,100
2017-05-01T18:18:52.720Z,88
2017-05-01T18:20:14.770Z,76
2017-05-01T18:21:36.712Z,64
2017-05-01T18:22:58.788Z,56
2017-05-01T18:24:21.630Z,52
2017-05-01T18:25:43.559Z,44
2017-05-01T18:27:05.464Z,40
2017-05-01T18:28:27.242Z,32
2017-05-01T18:29:49.137Z,32
2017-05-01T18:31:11.224Z,28
2017-05-01T18:32:33.125Z,24
2017-05-01T18:33:56.169Z,24
2017-05-01T18:35:18.425Z,20
2017-05-01T18:36:40.269Z,12
2017-05-01T18:38:02.194Z,12
2017-05-01T18:39:24.632Z,12
2017-05-01T18:40:47.533Z,8
2017-05-01T18:42:09.504Z,8
2017-05-01T18:43:32.001Z,4
2017-05-01T18:44:54.118Z,4
2017-05-01T18:46:17.586Z,4
2017-05-01T18:47:39.742Z,0
2017-05-01T18:49:01.685Z,4
2017-05-01T18:50:23.549Z,0
2017-05-01T18:51:45.462Z,4
2017-05-01T18:53:07.482Z,0
2017-05-01T18:54:29.666Z,0
2017-05-01T18:55:51.629Z,0
2017-05-01T18:57:13.974Z,0
2017-05-01T18:58:37.021Z,0
2017-05-01T18:59:59.646Z,0
2017-05-01T19:01:21.568Z,0
2017-05-01T19:02:43.616Z,0
2017-05-01T19:04:06.545Z,0
2017-05-01T19:05:29.576Z,0
2017-05-01T19:06:51.505Z,0
2017-05-01T19:08:13.352Z,0
2017-05-01T19:09:37.552Z,0
2017-05-01T19:10:59.397Z,0
2017-05-01T19:12:21.306Z,0
2017-05-01T19:13:43.156Z,0
2017-05-01T19:15:05.053Z,0
2017-05-01T19:16:27.224Z,0
2017-05-01T19:18:58.708Z,0
2017-05-01T19:20:20.682Z,0
2017-05-01T19:21:43.623Z,0
2017-05-01T19:23:05.709Z,0
2017-05-01T19:24:28.339Z,0
2017-05-01T19:25:50.303Z,0
2017-05-01T19:27:37.489Z,0
2017-05-01T19:29:06.646Z,0
2017-05-01T19:30:31.833Z,0
2017-05-01T19:33:04.397Z,0
2017-05-01T19:34:27.837Z,0
2017-05-01T19:35:50.437Z,0
2017-05-01T19:38:23.654Z,0
2017-05-01T19:39:48.454Z,0
2017-05-01T19:41:12.772Z,0
2017-05-01T19:42:35.053Z,0